Newark Liberty International Airport
KEWR : now visible

Airfield :











YOU CAN JOIN US ON...

 
LOGIN :

Register | Disclaimer

   EN    FR    IT 

 









Legend :    VFR   Marginal VFR   IFR   Intensive IFR   Very Intensive IFR
Visi :
Ceiling :
>= 8 km
>= 3000ft
5 to 8 km
1000 to 3000 ft
1500m to 5 km
500 to 1000 ft
800 to 1500m
200 to 500 ft
< 800m
< 200 ft
Symbols :   Thunderstorms  Fog  Heavy snow  Heavy precipitations  Wind > 20 kt






- Airport Elevation : 18 ft
- IATA code : EWR


KEWR - Newark Liberty International

CURRENT METAR :
  • 072051Z 13010KT 10SM FEW060 FEW110 BKN250 17/M01 A2977 RMK AO2 SLP081 T01671006 56034

EXPIRED METARs :
  • 071951Z 15011KT 10SM FEW065 FEW110 BKN250 17/00 A2980 RMK AO2 SLP090 T01670000
  • 071851Z VRB04KT 10SM FEW065 FEW110 BKN250 19/M01 A2983 RMK AO2 SLP100 FU PLUME E DRFTG E T01941006

TAF KEWR
Valid from the 07 at 20:00 until the 09 at 00:00 UTC


071931Z 0720/0824 16008KT P6SM SCT080
FM080800 21005KT 5SM -RA BR OVC020
FM081100 26005KT 5SM -RA BR OVC020
FM081300 29006KT P6SM BKN029
FM081400 33006KT P6SM BKN029
FM081700 36008KT P6SM BKN029
FM082000 03008KT P6SM BKN029
FM082200 06006KT P6SM BKN029



MET'MAP, your aeronautical weather chart ! - Copyright ORBIFLY December 2007 - Disclaimer

ORBIFLY MET'MAP TEAM :

Programming & Development : Alexandra Zaïnal
Concept & original design : Baudouin d'Aumeries
Assistance for programming : Marc-Olivier Méhu
Technical & hardware support : Manuel Goepfert

Contact : metmap@orbifly.com




SOURCES & CREDITS :

   NOAA       Earth
Advisory